sensor_id;sensor_type;location;lat;lon;timestamp;pressure;altitude;pressure_sealevel;temperature;humidity
5500;BME280;2772;42.700;23.304;2023-05-27T00:00:50;95126.91;;;17.08;100.00
5500;BME280;2772;42.700;23.304;2023-05-27T00:03:17;95128.81;;;17.07;100.00
5500;BME280;2772;42.700;23.304;2023-05-27T00:05:43;95122.66;;;17.07;100.00
5500;BME280;2772;42.700;23.304;2023-05-27T00:08:10;95118.91;;;17.11;100.00
5500;BME280;2772;42.700;23.304;2023-05-27T00:10:37;95120.91;;;17.14;100.00
5500;BME280;2772;42.700;23.304;2023-05-27T00:13:04;95114.31;;;17.12;100.00
5500;BME280;2772;42.700;23.304;2023-05-27T00:15:31;95119.59;;;17.08;100.00
5500;BME280;2772;42.700;23.304;2023-05-27T00:17:59;95113.78;;;17.06;100.00
5500;BME280;2772;42.700;23.304;2023-05-27T00:20:27;95105.72;;;17.06;100.00
5500;BME280;2772;42.700;23.304;2023-05-27T00:22:55;95100.78;;;17.08;100.00
5500;BME280;2772;42.700;23.304;2023-05-27T00:25:22;95107.03;;;17.12;100.00
5500;BME280;2772;42.700;23.304;2023-05-27T00:27:49;95101.56;;;17.24;100.00
5500;BME280;2772;42.700;23.304;2023-05-27T00:30:15;95103.03;;;17.06;100.00
5500;BME280;2772;42.700;23.304;2023-05-27T00:32:42;95105.28;;;17.04;100.00
5500;BME280;2772;42.700;23.304;2023-05-27T00:35:10;95104.59;;;16.92;100.00
5500;BME280;2772;42.700;23.304;2023-05-27T00:37:37;95115.34;;;16.92;100.00
5500;BME280;2772;42.700;23.304;2023-05-27T00:40:06;95096.78;;;16.87;100.00
5500;BME280;2772;42.700;23.304;2023-05-27T00:42:35;95094.78;;;16.84;100.00
5500;BME280;2772;42.700;23.304;2023-05-27T00:45:02;95092.59;;;16.89;100.00
5500;BME280;2772;42.700;23.304;2023-05-27T00:47:31;95088.59;;;16.99;100.00
5500;BME280;2772;42.700;23.304;2023-05-27T00:49:57;95078.53;;;16.80;100.00
5500;BME280;2772;42.700;23.304;2023-05-27T00:52:26;95072.97;;;16.73;100.00
5500;BME280;2772;42.700;23.304;2023-05-27T00:54:52;95065.53;;;16.82;100.00
5500;BME280;2772;42.700;23.304;2023-05-27T00:57:21;95056.91;;;16.92;100.00
5500;BME280;2772;42.700;23.304;2023-05-27T00:59:48;95056.50;;;16.90;100.00
5500;BME280;2772;42.700;23.304;2023-05-27T01:02:15;95057.81;;;16.96;100.00
5500;BME280;2772;42.700;23.304;2023-05-27T01:04:42;95058.66;;;17.00;100.00
5500;BME280;2772;42.700;23.304;2023-05-27T01:07:17;95067.44;;;16.97;100.00
5500;BME280;2772;42.700;23.304;2023-05-27T01:09:51;95067.19;;;17.02;100.00
5500;BME280;2772;42.700;23.304;2023-05-27T01:12:27;95066.66;;;16.97;100.00
5500;BME280;2772;42.700;23.304;2023-05-27T01:14:57;95046.59;;;16.94;100.00
5500;BME280;2772;42.700;23.304;2023-05-27T01:17:25;95042.25;;;17.05;100.00
5500;BME280;2772;42.700;23.304;2023-05-27T01:19:53;95023.25;;;17.14;100.00
5500;BME280;2772;42.700;23.304;2023-05-27T01:22:27;95038.34;;;17.18;100.00
5500;BME280;2772;42.700;23.304;2023-05-27T01:24:54;95033.66;;;17.15;100.00
5500;BME280;2772;42.700;23.304;2023-05-27T01:27:21;95024.66;;;17.08;100.00
5500;BME280;2772;42.700;23.304;2023-05-27T01:29:50;95016.38;;;17.16;100.00
5500;BME280;2772;42.700;23.304;2023-05-27T01:32:22;95012.53;;;17.17;100.00
5500;BME280;2772;42.700;23.304;2023-05-27T01:34:54;94997.78;;;17.27;100.00
5500;BME280;2772;42.700;23.304;2023-05-27T01:37:27;94994.66;;;17.25;100.00
5500;BME280;2772;42.700;23.304;2023-05-27T01:39:56;94996.66;;;17.28;100.00
5500;BME280;2772;42.700;23.304;2023-05-27T01:42:23;95002.31;;;17.23;100.00
5500;BME280;2772;42.700;23.304;2023-05-27T01:44:51;95007.88;;;17.14;100.00
5500;BME280;2772;42.700;23.304;2023-05-27T01:47:18;95012.19;;;17.19;100.00
5500;BME280;2772;42.700;23.304;2023-05-27T01:49:45;95013.34;;;17.18;100.00
5500;BME280;2772;42.700;23.304;2023-05-27T01:52:11;95017.09;;;17.13;100.00
5500;BME280;2772;42.700;23.304;2023-05-27T01:54:39;95018.38;;;17.19;100.00
5500;BME280;2772;42.700;23.304;2023-05-27T01:57:06;95029.50;;;17.18;100.00
5500;BME280;2772;42.700;23.304;2023-05-27T01:59:33;95028.53;;;17.10;100.00
5500;BME280;2772;42.700;23.304;2023-05-27T02:02:00;95024.72;;;17.11;100.00
5500;BME280;2772;42.700;23.304;2023-05-27T02:04:26;95031.69;;;17.12;100.00
5500;BME280;2772;42.700;23.304;2023-05-27T02:06:53;95022.72;;;17.08;100.00
5500;BME280;2772;42.700;23.304;2023-05-27T02:09:20;95018.84;;;17.06;100.00
5500;BME280;2772;42.700;23.304;2023-05-27T02:11:48;95026.56;;;17.07;100.00
5500;BME280;2772;42.700;23.304;2023-05-27T02:14:14;95017.59;;;17.03;100.00
5500;BME280;2772;42.700;23.304;2023-05-27T02:16:41;95019.00;;;16.97;100.00
5500;BME280;2772;42.700;23.304;2023-05-27T02:19:09;95014.75;;;16.96;100.00
5500;BME280;2772;42.700;23.304;2023-05-27T02:21:36;95021.09;;;16.88;100.00
5500;BME280;2772;42.700;23.304;2023-05-27T02:24:03;95016.31;;;16.82;100.00
5500;BME280;2772;42.700;23.304;2023-05-27T02:26:29;95020.50;;;16.79;100.00
5500;BME280;2772;42.700;23.304;2023-05-27T02:28:58;95023.59;;;16.66;100.00
5500;BME280;2772;42.700;23.304;2023-05-27T02:31:24;95025.31;;;16.58;100.00
5500;BME280;2772;42.700;23.304;2023-05-27T02:33:51;95024.72;;;16.49;100.00
5500;BME280;2772;42.700;23.304;2023-05-27T02:36:18;95015.00;;;16.45;100.00
5500;BME280;2772;42.700;23.304;2023-05-27T02:38:46;95019.69;;;16.48;100.00
5500;BME280;2772;42.700;23.304;2023-05-27T02:41:13;95012.16;;;16.53;100.00
5500;BME280;2772;42.700;23.304;2023-05-27T02:43:39;95012.22;;;16.57;100.00
5500;BME280;2772;42.700;23.304;2023-05-27T02:46:07;95007.53;;;16.54;100.00
5500;BME280;2772;42.700;23.304;2023-05-27T02:48:34;95010.06;;;16.62;100.00
5500;BME280;2772;42.700;23.304;2023-05-27T02:51:01;95012.06;;;16.65;100.00
5500;BME280;2772;42.700;23.304;2023-05-27T02:53:27;95005.09;;;16.64;100.00
5500;BME280;2772;42.700;23.304;2023-05-27T02:55:54;95009.28;;;16.62;100.00
5500;BME280;2772;42.700;23.304;2023-05-27T02:58:20;95000.63;;;16.68;100.00
5500;BME280;2772;42.700;23.304;2023-05-27T03:00:47;94997.94;;;16.68;100.00
5500;BME280;2772;42.700;23.304;2023-05-27T03:03:15;95006.69;;;16.65;100.00
5500;BME280;2772;42.700;23.304;2023-05-27T03:05:42;95012.16;;;16.69;100.00
5500;BME280;2772;42.700;23.304;2023-05-27T03:08:09;95002.50;;;16.68;100.00
5500;BME280;2772;42.700;23.304;2023-05-27T03:10:35;95002.88;;;16.66;100.00
5500;BME280;2772;42.700;23.304;2023-05-27T03:13:02;95010.84;;;16.63;100.00
5500;BME280;2772;42.700;23.304;2023-05-27T03:15:28;95003.66;;;16.67;100.00
5500;BME280;2772;42.700;23.304;2023-05-27T03:17:56;95007.44;;;16.66;100.00
5500;BME280;2772;42.700;23.304;2023-05-27T03:20:25;95012.41;;;16.64;100.00
5500;BME280;2772;42.700;23.304;2023-05-27T03:22:51;95016.56;;;16.61;100.00
5500;BME280;2772;42.700;23.304;2023-05-27T03:25:18;95028.00;;;16.58;100.00
5500;BME280;2772;42.700;23.304;2023-05-27T03:27:45;95017.94;;;16.55;100.00
5500;BME280;2772;42.700;23.304;2023-05-27T03:30:12;95015.50;;;16.50;100.00
5500;BME280;2772;42.700;23.304;2023-05-27T03:32:38;95005.63;;;16.54;100.00
5500;BME280;2772;42.700;23.304;2023-05-27T03:35:05;95014.66;;;16.46;100.00
5500;BME280;2772;42.700;23.304;2023-05-27T03:37:34;95014.19;;;16.44;100.00
5500;BME280;2772;42.700;23.304;2023-05-27T03:40:01;95011.97;;;16.46;100.00
5500;BME280;2772;42.700;23.304;2023-05-27T03:42:28;95013.41;;;16.44;100.00
5500;BME280;2772;42.700;23.304;2023-05-27T03:44:55;95022.03;;;16.49;100.00
5500;BME280;2772;42.700;23.304;2023-05-27T03:47:22;95026.91;;;16.59;100.00
5500;BME280;2772;42.700;23.304;2023-05-27T03:49:48;95028.53;;;16.48;100.00
5500;BME280;2772;42.700;23.304;2023-05-27T03:52:15;95030.88;;;16.50;100.00
5500;BME280;2772;42.700;23.304;2023-05-27T03:54:43;95037.00;;;16.50;100.00
5500;BME280;2772;42.700;23.304;2023-05-27T03:57:10;95033.56;;;16.50;100.00
5500;BME280;2772;42.700;23.304;2023-05-27T03:59:37;95030.09;;;16.49;100.00
5500;BME280;2772;42.700;23.304;2023-05-27T04:02:04;95034.72;;;16.37;100.00
5500;BME280;2772;42.700;23.304;2023-05-27T04:04:31;95024.72;;;16.22;100.00
5500;BME280;2772;42.700;23.304;2023-05-27T04:06:57;95032.78;;;16.22;100.00
5500;BME280;2772;42.700;23.304;2023-05-27T04:09:24;95034.00;;;16.24;100.00
5500;BME280;2772;42.700;23.304;2023-05-27T04:11:52;95026.50;;;16.18;100.00
5500;BME280;2772;42.700;23.304;2023-05-27T04:14:19;95025.06;;;16.20;100.00
5500;BME280;2772;42.700;23.304;2023-05-27T04:16:46;95024.91;;;16.29;100.00
5500;BME280;2772;42.700;23.304;2023-05-27T04:19:13;95020.94;;;16.38;100.00
5500;BME280;2772;42.700;23.304;2023-05-27T04:21:40;95032.91;;;16.41;100.00
5500;BME280;2772;42.700;23.304;2023-05-27T04:24:07;95025.75;;;16.45;100.00
5500;BME280;2772;42.700;23.304;2023-05-27T04:26:34;95030.66;;;16.43;100.00
5500;BME280;2772;42.700;23.304;2023-05-27T04:29:02;95029.88;;;16.42;100.00
5500;BME280;2772;42.700;23.304;2023-05-27T04:31:31;95036.59;;;16.48;100.00
5500;BME280;2772;42.700;23.304;2023-05-27T04:33:58;95040.25;;;16.56;100.00
5500;BME280;2772;42.700;23.304;2023-05-27T04:36:24;95047.88;;;16.69;100.00
5500;BME280;2772;42.700;23.304;2023-05-27T04:38:52;95049.81;;;16.84;100.00
5500;BME280;2772;42.700;23.304;2023-05-27T04:41:19;95054.94;;;16.89;100.00
5500;BME280;2772;42.700;23.304;2023-05-27T04:43:46;95054.22;;;16.92;100.00
5500;BME280;2772;42.700;23.304;2023-05-27T04:46:15;95054.31;;;16.96;100.00
5500;BME280;2772;42.700;23.304;2023-05-27T04:48:41;95061.63;;;16.95;100.00
5500;BME280;2772;42.700;23.304;2023-05-27T04:51:10;95057.56;;;16.86;100.00
5500;BME280;2772;42.700;23.304;2023-05-27T04:53:36;95056.41;;;16.87;100.00
5500;BME280;2772;42.700;23.304;2023-05-27T04:56:03;95063.63;;;16.98;100.00
5500;BME280;2772;42.700;23.304;2023-05-27T04:58:33;95066.91;;;17.07;100.00
5500;BME280;2772;42.700;23.304;2023-05-27T05:01:00;95065.97;;;17.15;100.00
5500;BME280;2772;42.700;23.304;2023-05-27T05:03:28;95061.78;;;17.18;100.00
5500;BME280;2772;42.700;23.304;2023-05-27T05:06:05;95065.19;;;17.15;100.00
5500;BME280;2772;42.700;23.304;2023-05-27T05:08:32;95065.97;;;17.31;100.00
5500;BME280;2772;42.700;23.304;2023-05-27T05:10:59;95069.00;;;17.29;100.00
5500;BME280;2772;42.700;23.304;2023-05-27T05:13:25;95074.63;;;17.40;100.00
5500;BME280;2772;42.700;23.304;2023-05-27T05:15:54;95069.50;;;17.35;100.00
5500;BME280;2772;42.700;23.304;2023-05-27T05:18:21;95073.09;;;17.23;100.00
5500;BME280;2772;42.700;23.304;2023-05-27T05:20:49;95070.56;;;17.30;100.00
5500;BME280;2772;42.700;23.304;2023-05-27T05:23:16;95071.94;;;17.24;100.00
5500;BME280;2772;42.700;23.304;2023-05-27T05:25:42;95074.44;;;17.33;100.00
5500;BME280;2772;42.700;23.304;2023-05-27T05:28:09;95078.03;;;17.21;100.00
5500;BME280;2772;42.700;23.304;2023-05-27T05:30:36;95078.72;;;17.34;100.00
5500;BME280;2772;42.700;23.304;2023-05-27T05:33:04;95082.34;;;17.41;100.00
5500;BME280;2772;42.700;23.304;2023-05-27T05:35:31;95080.81;;;17.40;100.00
5500;BME280;2772;42.700;23.304;2023-05-27T05:37:59;95085.66;;;17.51;100.00
5500;BME280;2772;42.700;23.304;2023-05-27T05:40:25;95085.84;;;17.58;100.00
5500;BME280;2772;42.700;23.304;2023-05-27T05:42:52;95085.06;;;17.57;100.00
5500;BME280;2772;42.700;23.304;2023-05-27T05:45:19;95093.22;;;17.61;100.00
5500;BME280;2772;42.700;23.304;2023-05-27T05:47:46;95092.16;;;17.65;100.00
5500;BME280;2772;42.700;23.304;2023-05-27T05:50:12;95086.31;;;17.79;100.00
5500;BME280;2772;42.700;23.304;2023-05-27T05:52:39;95093.50;;;17.90;100.00
5500;BME280;2772;42.700;23.304;2023-05-27T05:55:08;95094.22;;;18.06;100.00
5500;BME280;2772;42.700;23.304;2023-05-27T05:57:35;95095.50;;;18.12;100.00
5500;BME280;2772;42.700;23.304;2023-05-27T06:00:02;95097.88;;;18.33;100.00
5500;BME280;2772;42.700;23.304;2023-05-27T06:02:29;95101.13;;;18.23;100.00
5500;BME280;2772;42.700;23.304;2023-05-27T06:04:56;95099.63;;;18.25;100.00
5500;BME280;2772;42.700;23.304;2023-05-27T06:07:23;95110.84;;;18.27;100.00
5500;BME280;2772;42.700;23.304;2023-05-27T06:09:49;95102.53;;;18.17;100.00
5500;BME280;2772;42.700;23.304;2023-05-27T06:12:17;95099.06;;;18.35;100.00
5500;BME280;2772;42.700;23.304;2023-05-27T06:14:44;95103.06;;;18.41;100.00
5500;BME280;2772;42.700;23.304;2023-05-27T06:17:12;95102.50;;;18.51;100.00
5500;BME280;2772;42.700;23.304;2023-05-27T06:19:39;95102.34;;;18.44;100.00
5500;BME280;2772;42.700;23.304;2023-05-27T06:22:05;95111.88;;;18.57;100.00
5500;BME280;2772;42.700;23.304;2023-05-27T06:24:32;95116.56;;;18.60;100.00
5500;BME280;2772;42.700;23.304;2023-05-27T06:26:59;95106.22;;;18.66;100.00
5500;BME280;2772;42.700;23.304;2023-05-27T06:29:27;95108.56;;;18.67;100.00
5500;BME280;2772;42.700;23.304;2023-05-27T06:31:54;95118.28;;;18.72;100.00
5500;BME280;2772;42.700;23.304;2023-05-27T06:34:21;95120.50;;;18.66;100.00
5500;BME280;2772;42.700;23.304;2023-05-27T06:36:47;95123.47;;;18.80;100.00
5500;BME280;2772;42.700;23.304;2023-05-27T06:39:14;95132.13;;;18.89;100.00
5500;BME280;2772;42.700;23.304;2023-05-27T06:41:41;95120.91;;;18.87;100.00
5500;BME280;2772;42.700;23.304;2023-05-27T06:44:08;95122.19;;;18.93;100.00
5500;BME280;2772;42.700;23.304;2023-05-27T06:46:36;95120.41;;;19.01;100.00
5500;BME280;2772;42.700;23.304;2023-05-27T06:49:03;95124.16;;;18.97;100.00
5500;BME280;2772;42.700;23.304;2023-05-27T06:51:29;95122.84;;;19.10;100.00
5500;BME280;2772;42.700;23.304;2023-05-27T06:53:57;95131.09;;;19.17;100.00
5500;BME280;2772;42.700;23.304;2023-05-27T06:56:24;95125.91;;;19.08;100.00
5500;BME280;2772;42.700;23.304;2023-05-27T06:58:51;95131.31;;;19.08;100.00
5500;BME280;2772;42.700;23.304;2023-05-27T07:01:18;95119.94;;;19.18;100.00
5500;BME280;2772;42.700;23.304;2023-05-27T07:03:46;95126.13;;;19.19;100.00
5500;BME280;2772;42.700;23.304;2023-05-27T07:06:13;95137.22;;;19.36;100.00
5500;BME280;2772;42.700;23.304;2023-05-27T07:08:40;95138.66;;;19.30;100.00
5500;BME280;2772;42.700;23.304;2023-05-27T07:11:06;95137.47;;;19.50;100.00
5500;BME280;2772;42.700;23.304;2023-05-27T07:13:33;95145.03;;;19.41;100.00
5500;BME280;2772;42.700;23.304;2023-05-27T07:16:00;95148.72;;;19.30;100.00
5500;BME280;2772;42.700;23.304;2023-05-27T07:18:27;95137.34;;;19.43;100.00
5500;BME280;2772;42.700;23.304;2023-05-27T07:20:55;95135.25;;;19.56;100.00
5500;BME280;2772;42.700;23.304;2023-05-27T07:23:22;95147.88;;;19.48;100.00
5500;BME280;2772;42.700;23.304;2023-05-27T07:25:48;95142.47;;;19.48;100.00
5500;BME280;2772;42.700;23.304;2023-05-27T07:28:15;95141.38;;;19.53;100.00
5500;BME280;2772;42.700;23.304;2023-05-27T07:30:42;95140.13;;;19.47;100.00
5500;BME280;2772;42.700;23.304;2023-05-27T07:33:09;95141.13;;;19.61;100.00
5500;BME280;2772;42.700;23.304;2023-05-27T07:35:35;95138.53;;;19.68;100.00
5500;BME280;2772;42.700;23.304;2023-05-27T07:38:04;95142.44;;;19.71;100.00
5500;BME280;2772;42.700;23.304;2023-05-27T07:40:30;95138.25;;;19.73;100.00
5500;BME280;2772;42.700;23.304;2023-05-27T07:42:57;95150.94;;;19.47;100.00
5500;BME280;2772;42.700;23.304;2023-05-27T07:45:24;95142.88;;;19.50;100.00
5500;BME280;2772;42.700;23.304;2023-05-27T07:47:51;95148.50;;;19.64;100.00
5500;BME280;2772;42.700;23.304;2023-05-27T07:50:17;95148.00;;;19.81;100.00
5500;BME280;2772;42.700;23.304;2023-05-27T07:52:44;95144.25;;;19.89;100.00
5500;BME280;2772;42.700;23.304;2023-05-27T07:55:13;95148.94;;;19.92;100.00
5500;BME280;2772;42.700;23.304;2023-05-27T07:57:40;95153.38;;;19.78;100.00
5500;BME280;2772;42.700;23.304;2023-05-27T08:00:10;95160.09;;;19.87;100.00
5500;BME280;2772;42.700;23.304;2023-05-27T08:02:37;95157.63;;;20.05;100.00
5500;BME280;2772;42.700;23.304;2023-05-27T08:05:04;95155.75;;;20.09;100.00
5500;BME280;2772;42.700;23.304;2023-05-27T08:07:31;95162.72;;;20.10;100.00
5500;BME280;2772;42.700;23.304;2023-05-27T08:09:58;95169.03;;;20.17;100.00
5500;BME280;2772;42.700;23.304;2023-05-27T08:12:26;95163.63;;;20.17;100.00
5500;BME280;2772;42.700;23.304;2023-05-27T11:10:21;95150.25;;;22.86;100.00
5500;BME280;2772;42.700;23.304;2023-05-27T11:12:47;95154.84;;;22.75;100.00
5500;BME280;2772;42.700;23.304;2023-05-27T11:15:14;95137.72;;;22.64;100.00
5500;BME280;2772;42.700;23.304;2023-05-27T11:17:41;95134.59;;;22.55;100.00
5500;BME280;2772;42.700;23.304;2023-05-27T11:20:09;95144.63;;;22.48;100.00
5500;BME280;2772;42.700;23.304;2023-05-27T11:22:35;95138.41;;;22.47;100.00
5500;BME280;2772;42.700;23.304;2023-05-27T11:25:03;95132.19;;;22.43;100.00
5500;BME280;2772;42.700;23.304;2023-05-27T11:27:36;95132.53;;;22.38;100.00
5500;BME280;2772;42.700;23.304;2023-05-27T11:30:07;95120.94;;;22.45;100.00
5500;BME280;2772;42.700;23.304;2023-05-27T11:32:38;95115.09;;;22.39;100.00
5500;BME280;2772;42.700;23.304;2023-05-27T11:35:12;95113.53;;;22.38;100.00
5500;BME280;2772;42.700;23.304;2023-05-27T11:37:39;95113.09;;;22.33;100.00
5500;BME280;2772;42.700;23.304;2023-05-27T11:40:10;95103.41;;;22.28;100.00
5500;BME280;2772;42.700;23.304;2023-05-27T11:42:43;95106.06;;;22.18;100.00
5500;BME280;2772;42.700;23.304;2023-05-27T11:45:14;95106.84;;;22.18;100.00
5500;BME280;2772;42.700;23.304;2023-05-27T11:47:42;95104.13;;;22.15;100.00
5500;BME280;2772;42.700;23.304;2023-05-27T11:50:09;95105.59;;;22.05;100.00
5500;BME280;2772;42.700;23.304;2023-05-27T11:52:49;95102.16;;;22.12;100.00
5500;BME280;2772;42.700;23.304;2023-05-27T11:55:16;95097.13;;;22.17;100.00
5500;BME280;2772;42.700;23.304;2023-05-27T11:57:44;95095.66;;;22.30;100.00
5500;BME280;2772;42.700;23.304;2023-05-27T12:00:12;95089.56;;;22.51;100.00
